createdAt,value
2022-09-10T00:01:59.171Z,1.30
2022-09-10T00:04:26.459Z,1.10
2022-09-10T00:06:53.169Z,1.75
2022-09-10T00:09:20.109Z,1.35
2022-09-10T00:11:46.754Z,2.00
2022-09-10T00:14:18.857Z,1.35
2022-09-10T00:16:45.931Z,1.45
2022-09-10T00:19:14.777Z,1.30
2022-09-10T00:21:41.772Z,1.50
2022-09-10T00:24:08.395Z,1.35
2022-09-10T00:26:39.147Z,1.52
2022-09-10T00:29:10.648Z,1.73
2022-09-10T00:31:38.250Z,1.10
2022-09-10T00:34:06.133Z,1.40
2022-09-10T00:36:40.235Z,1.67
2022-09-10T00:39:13.911Z,1.55
2022-09-10T00:41:43.024Z,1.50
2022-09-10T00:44:40.915Z,1.40
2022-09-10T00:47:17.035Z,1.30
2022-09-10T00:49:49.836Z,1.30
2022-09-10T00:52:16.958Z,0.90
2022-09-10T00:54:45.931Z,1.33
2022-09-10T00:57:18.525Z,1.30
2022-09-10T00:59:50.194Z,1.55
2022-09-10T01:02:16.827Z,1.40
2022-09-10T01:04:44.165Z,1.52
2022-09-10T01:07:11.940Z,1.30
2022-09-10T01:09:39.782Z,1.35
2022-09-10T01:12:35.668Z,1.30
2022-09-10T01:15:09.189Z,1.42
2022-09-10T01:18:05.903Z,1.48
2022-09-10T01:21:03.525Z,1.50
2022-09-10T01:24:07.738Z,1.25
2022-09-10T01:27:00.997Z,1.55
2022-09-10T01:29:35.898Z,0.98
2022-09-10T01:32:13.760Z,1.63
2022-09-10T01:34:55.475Z,1.50
2022-09-10T01:37:30.437Z,1.52
2022-09-10T01:39:59.440Z,1.95
2022-09-10T01:42:29.218Z,1.73
2022-09-10T01:45:01.011Z,1.70
2022-09-10T01:47:49.316Z,1.50
2022-09-10T01:50:32.217Z,1.52
2022-09-10T01:53:33.299Z,1.65
2022-09-10T01:56:42.025Z,1.55
2022-09-10T01:59:29.794Z,1.50
2022-09-10T02:02:03.856Z,1.40
2022-09-10T02:04:31.340Z,1.88
2022-09-10T02:06:59.567Z,1.67
2022-09-10T02:09:26.743Z,2.05
2022-09-10T02:11:56.139Z,1.48
2022-09-10T02:14:23.268Z,1.90
2022-09-10T02:16:58.635Z,1.80
2022-09-10T02:19:26.756Z,1.67
2022-09-10T02:21:57.755Z,2.20
2022-09-10T02:24:24.317Z,1.90
2022-09-10T02:26:51.046Z,1.80
2022-09-10T02:29:19.182Z,1.70
2022-09-10T02:31:47.279Z,1.60
2022-09-10T02:34:15.737Z,1.80
2022-09-10T02:36:42.513Z,1.85
2022-09-10T02:39:09.496Z,1.67
2022-09-10T02:41:36.688Z,1.98
2022-09-10T02:44:04.250Z,1.52
2022-09-10T02:46:31.148Z,1.67
2022-09-10T02:48:58.400Z,1.95
2022-09-10T02:51:25.682Z,1.77
2022-09-10T02:53:52.429Z,1.60
2022-09-10T02:56:24.157Z,1.38
2022-09-10T02:58:51.182Z,1.80
2022-09-10T03:01:22.700Z,1.67
2022-09-10T03:03:54.991Z,1.27
2022-09-10T03:06:23.366Z,1.60
2022-09-10T03:08:52.292Z,1.70
2022-09-10T03:11:22.843Z,1.52
2022-09-10T03:13:50.171Z,1.30
2022-09-10T03:16:18.424Z,1.85
2022-09-10T03:18:45.622Z,1.40
2022-09-10T03:21:13.097Z,1.58
2022-09-10T03:23:40.416Z,1.50
2022-09-10T03:26:07.728Z,1.60
2022-09-10T03:28:34.712Z,1.90
2022-09-10T03:31:04.376Z,2.10
2022-09-10T03:33:31.173Z,1.70
2022-09-10T03:35:57.826Z,1.85
2022-09-10T03:38:25.160Z,1.50
2022-09-10T03:40:53.068Z,1.80
2022-09-10T03:43:22.273Z,1.83
2022-09-10T03:45:50.347Z,1.10
2022-09-10T03:48:21.356Z,1.30
2022-09-10T03:50:50.692Z,1.50
2022-09-10T03:53:18.735Z,1.50
2022-09-10T03:55:46.750Z,1.30
2022-09-10T03:58:14.411Z,1.50
2022-09-10T04:00:45.431Z,1.27
2022-09-10T04:03:12.527Z,1.27
2022-09-10T04:05:41.778Z,1.50
2022-09-10T04:08:11.745Z,1.40
2022-09-10T04:10:40.762Z,1.80
2022-09-10T04:13:07.998Z,1.52
2022-09-10T04:15:34.763Z,1.70
2022-09-10T04:18:01.376Z,1.40
2022-09-10T04:20:28.004Z,1.33
2022-09-10T04:22:56.541Z,1.70
2022-09-10T04:25:26.450Z,1.70
2022-09-10T04:27:53.099Z,1.58
2022-09-10T04:30:19.994Z,1.40
2022-09-10T04:32:46.883Z,1.13
2022-09-10T04:35:15.416Z,1.48
2022-09-10T04:37:43.060Z,1.83
2022-09-10T04:40:10.467Z,1.42
2022-09-10T04:42:37.276Z,1.70
2022-09-10T04:45:04.682Z,1.40
2022-09-10T04:47:31.417Z,1.60
2022-09-10T04:49:58.284Z,1.60
2022-09-10T04:52:25.073Z,1.58
2022-09-10T04:54:51.716Z,1.58
2022-09-10T04:57:18.532Z,1.50
2022-09-10T04:59:45.221Z,1.30
2022-09-10T05:02:12.886Z,1.80
2022-09-10T05:04:40.013Z,1.60
2022-09-10T05:07:06.710Z,2.03
2022-09-10T05:09:33.770Z,1.70
2022-09-10T05:12:02.902Z,3.05
2022-09-10T05:14:29.798Z,1.80
2022-09-10T05:16:57.017Z,2.00
2022-09-10T05:19:23.677Z,1.50
2022-09-10T05:21:50.427Z,1.95
2022-09-10T05:24:17.180Z,1.83
2022-09-10T05:26:44.188Z,1.58
2022-09-10T05:29:14.088Z,1.80
2022-09-10T05:31:41.135Z,1.25
2022-09-10T05:34:08.378Z,1.33
2022-09-10T05:36:35.586Z,1.30
2022-09-10T05:39:03.806Z,2.00
2022-09-10T05:41:31.146Z,1.50
2022-09-10T05:43:58.551Z,1.70
2022-09-10T05:46:25.352Z,1.50
2022-09-10T05:48:55.500Z,1.70
2022-09-10T05:51:22.368Z,1.65
2022-09-10T05:53:49.909Z,1.70
2022-09-10T05:56:16.737Z,1.65
2022-09-10T05:58:45.265Z,1.98
2022-09-10T06:01:12.291Z,1.83
2022-09-10T06:03:40.378Z,2.00
2022-09-10T06:06:07.415Z,1.90
2022-09-10T06:08:35.591Z,1.90
2022-09-10T06:11:07.884Z,1.48
2022-09-10T06:13:35.491Z,1.80
2022-09-10T06:16:03.312Z,1.88
2022-09-10T06:18:31.902Z,1.63
2022-09-10T06:21:06.182Z,1.83
2022-09-10T06:23:34.156Z,1.55
2022-09-10T06:26:08.338Z,1.55
2022-09-10T06:28:35.359Z,1.52
2022-09-10T06:31:04.282Z,1.30
2022-09-10T06:33:31.497Z,1.73
2022-09-10T06:36:00.603Z,1.50
2022-09-10T06:38:33.582Z,1.48
2022-09-10T06:41:04.205Z,1.55
2022-09-10T06:43:34.267Z,1.38
2022-09-10T06:46:00.944Z,1.38
2022-09-10T06:48:47.816Z,1.40
2022-09-10T06:51:16.226Z,1.48
2022-09-10T06:53:44.351Z,1.60
2022-09-10T06:56:12.351Z,1.67
2022-09-10T06:58:39.890Z,1.45
2022-09-10T07:01:18.112Z,1.83
2022-09-10T07:03:45.991Z,1.42
2022-09-10T07:06:17.114Z,1.40
2022-09-10T07:08:44.178Z,1.95
2022-09-10T07:11:13.567Z,1.70
2022-09-10T07:13:41.059Z,1.60
2022-09-10T07:16:07.861Z,1.33
2022-09-10T07:18:34.643Z,1.10
2022-09-10T07:21:14.759Z,1.40
2022-09-10T07:23:42.227Z,1.35
2022-09-10T07:26:11.506Z,1.27
2022-09-10T07:28:39.577Z,1.30
2022-09-10T07:31:13.908Z,1.70
2022-09-10T07:33:40.950Z,1.10
2022-09-10T07:36:08.399Z,1.23
2022-09-10T07:38:35.896Z,1.00
2022-09-10T07:41:04.478Z,1.48
2022-09-10T07:43:31.494Z,1.15
2022-09-10T07:46:02.230Z,1.27
2022-09-10T07:48:30.656Z,1.20
2022-09-10T07:51:03.416Z,1.40
2022-09-10T07:53:30.760Z,1.23
2022-09-10T07:56:02.952Z,0.93
2022-09-10T07:58:31.694Z,0.95
2022-09-10T08:01:02.263Z,0.77
2022-09-10T08:03:30.157Z,0.80
2022-09-10T08:06:03.276Z,0.80
2022-09-10T08:08:35.460Z,0.88
2022-09-10T08:11:17.680Z,0.85
2022-09-10T08:13:54.253Z,1.00
2022-09-10T08:16:23.064Z,0.73
2022-09-10T08:18:53.453Z,0.73
2022-09-10T08:21:20.260Z,0.90
2022-09-10T08:23:51.900Z,0.85
2022-09-10T08:26:18.674Z,0.85
2022-09-10T08:28:45.510Z,1.00
2022-09-10T08:31:13.281Z,0.80
2022-09-10T08:33:40.470Z,0.70
2022-09-10T08:36:10.330Z,0.68
2022-09-10T08:38:41.747Z,0.70
2022-09-10T08:41:38.284Z,0.68
2022-09-10T08:44:30.332Z,0.50
2022-09-10T08:49:47.976Z,0.60
2022-09-10T08:52:33.847Z,0.63
2022-09-10T08:55:21.559Z,0.80
2022-09-10T08:57:54.902Z,0.90
2022-09-10T09:00:28.645Z,0.93
2022-09-10T09:03:23.082Z,0.98
2022-09-10T09:05:59.378Z,0.93
2022-09-10T09:08:30.175Z,0.70
2022-09-10T09:11:12.920Z,0.90
2022-09-10T09:13:45.383Z,0.80
2022-09-10T09:16:33.509Z,0.60
2022-09-10T09:19:23.281Z,0.93
2022-09-10T09:22:03.595Z,0.85
2022-09-10T09:24:40.407Z,0.60
2022-09-10T09:27:13.252Z,0.70
2022-09-10T09:29:55.881Z,0.98
2022-09-10T09:32:23.601Z,0.70
2022-09-10T09:35:02.396Z,0.70
2022-09-10T09:37:31.133Z,0.70
2022-09-10T09:40:13.455Z,1.10
2022-09-10T09:42:46.398Z,1.05
2022-09-10T09:45:37.555Z,0.60
2022-09-10T09:48:06.662Z,0.87
2022-09-10T09:50:36.879Z,0.80
2022-09-10T09:53:03.530Z,0.77
2022-09-10T09:55:38.989Z,1.00
2022-09-10T09:58:26.824Z,0.88
2022-09-10T10:01:04.627Z,1.10
2022-09-10T10:03:48.722Z,1.35
2022-09-10T10:06:16.395Z,0.75
2022-09-10T10:08:57.901Z,0.70
2022-09-10T10:11:41.489Z,0.88
2022-09-10T10:14:23.037Z,0.93
2022-09-10T10:16:52.586Z,1.15
2022-09-10T10:19:32.684Z,1.10
2022-09-10T10:22:23.230Z,1.15
2022-09-10T10:24:52.500Z,1.30
2022-09-10T10:27:41.380Z,1.40
2022-09-10T10:30:13.541Z,1.80
2022-09-10T10:32:51.663Z,2.00
2022-09-10T10:35:47.867Z,1.98
2022-09-10T10:38:28.441Z,1.80
2022-09-10T10:41:09.883Z,1.60
2022-09-10T10:44:06.197Z,1.73
2022-09-10T10:46:40.866Z,1.75
2022-09-10T10:49:28.842Z,2.00
2022-09-10T10:52:05.156Z,1.65
2022-09-10T10:54:50.528Z,1.75
2022-09-10T10:57:30.882Z,1.60
2022-09-10T11:00:09.744Z,1.85
2022-09-10T11:02:49.579Z,1.67
2022-09-10T11:05:23.825Z,1.50
2022-09-10T11:07:50.651Z,1.55
2022-09-10T11:10:27.087Z,1.70
2022-09-10T11:13:14.787Z,1.80
2022-09-10T11:15:47.500Z,1.60
2022-09-10T11:18:34.536Z,1.60
2022-09-10T11:21:16.344Z,1.70
2022-09-10T11:23:57.416Z,1.58
2022-09-10T11:26:36.319Z,1.70
2022-09-10T11:29:22.694Z,1.55
2022-09-10T11:32:00.665Z,1.38
2022-09-10T11:34:55.552Z,1.60
2022-09-10T11:37:50.975Z,1.60
2022-09-10T11:40:52.188Z,1.35
2022-09-10T11:43:42.179Z,1.10
2022-09-10T11:46:18.647Z,1.10
2022-09-10T11:49:03.487Z,1.40
2022-09-10T11:51:37.503Z,1.10
2022-09-10T11:54:10.150Z,1.40
2022-09-10T11:56:59.593Z,1.40
2022-09-10T11:59:54.026Z,1.52
2022-09-10T12:02:58.428Z,1.50
2022-09-10T12:05:43.619Z,1.50
2022-09-10T12:08:35.849Z,2.08
2022-09-10T12:11:28.291Z,1.52
2022-09-10T12:13:55.536Z,1.70
2022-09-10T12:16:34.835Z,1.52
2022-09-10T12:19:06.992Z,1.83
2022-09-10T12:21:41.276Z,1.50
2022-09-10T12:24:31.489Z,2.00
2022-09-10T12:27:02.570Z,2.05
2022-09-10T12:29:40.683Z,1.83
2022-09-10T12:32:19.401Z,1.70
2022-09-10T12:34:48.367Z,1.50
2022-09-10T12:37:21.484Z,1.60
2022-09-10T12:39:49.472Z,1.65
2022-09-10T12:42:31.277Z,2.00
2022-09-10T12:44:58.436Z,1.60
2022-09-10T12:47:34.880Z,1.80
2022-09-10T12:50:06.663Z,2.05
2022-09-10T12:52:50.947Z,1.80
2022-09-10T12:55:36.682Z,1.75
2022-09-10T12:58:28.638Z,1.65
2022-09-10T13:03:24.157Z,2.05
2022-09-10T13:05:56.235Z,1.95
2022-09-10T13:08:25.642Z,1.75
2022-09-10T13:11:15.831Z,1.75
2022-09-10T13:13:48.641Z,1.75
2022-09-10T13:16:35.464Z,1.65
2022-09-10T13:19:22.024Z,1.42
2022-09-10T13:21:48.592Z,1.90
2022-09-10T13:24:33.967Z,1.70
2022-09-10T13:27:24.553Z,1.63
2022-09-10T13:29:56.473Z,1.85
2022-09-10T13:32:48.709Z,1.85
2022-09-10T13:35:21.139Z,1.80
2022-09-10T13:38:09.653Z,2.08
2022-09-10T13:40:39.178Z,1.70
2022-09-10T13:43:44.473Z,1.83
2022-09-10T13:46:21.787Z,2.00
2022-09-10T13:48:57.737Z,2.05
2022-09-10T13:51:54.476Z,2.55
2022-09-10T13:54:37.770Z,2.00
2022-09-10T13:57:19.163Z,2.00
2022-09-10T13:59:50.220Z,1.73
2022-09-10T14:02:19.640Z,1.65
2022-09-10T14:04:47.695Z,1.90
2022-09-10T14:07:21.440Z,1.98
2022-09-10T14:09:51.317Z,1.95
2022-09-10T14:12:20.880Z,2.10
2022-09-10T14:14:52.814Z,1.80
2022-09-10T14:17:25.602Z,1.63
2022-09-10T14:20:04.123Z,1.70
2022-09-10T14:22:31.791Z,1.75
2022-09-10T14:25:01.374Z,1.70
2022-09-10T14:27:36.448Z,2.03
2022-09-10T14:30:18.428Z,1.77
2022-09-10T14:32:46.188Z,2.10
2022-09-10T14:35:36.418Z,1.80
2022-09-10T14:38:08.994Z,2.13
2022-09-10T14:40:37.201Z,2.00
2022-09-10T14:43:15.271Z,1.70
2022-09-10T14:45:46.098Z,2.15
2022-09-10T14:48:37.091Z,2.47
2022-09-10T14:51:14.325Z,2.15
2022-09-10T14:53:42.212Z,2.33
2022-09-10T14:56:42.242Z,2.03
2022-09-10T14:59:36.262Z,2.25
2022-09-10T15:02:13.725Z,2.20
2022-09-10T15:04:40.343Z,2.45
2022-09-10T15:07:09.546Z,2.42
2022-09-10T15:09:36.101Z,2.80
2022-09-10T15:12:08.663Z,2.75
2022-09-10T15:14:36.820Z,2.58
2022-09-10T15:17:03.965Z,3.10
2022-09-10T15:19:31.809Z,2.90
2022-09-10T15:21:58.697Z,3.03
2022-09-10T15:24:25.973Z,3.50
2022-09-10T15:26:52.890Z,3.42
2022-09-10T15:29:19.718Z,3.65
2022-09-10T15:31:46.307Z,3.95
2022-09-10T15:34:12.957Z,3.65
2022-09-10T15:36:41.202Z,3.67
2022-09-10T15:39:11.352Z,3.47
2022-09-10T15:41:43.538Z,3.13
2022-09-10T15:44:10.538Z,3.13
2022-09-10T15:46:42.037Z,3.83
2022-09-10T15:49:08.752Z,3.55
2022-09-10T15:51:35.397Z,4.20
2022-09-10T15:54:07.482Z,3.72
2022-09-10T15:56:34.112Z,3.78
2022-09-10T15:59:02.897Z,3.15
2022-09-10T16:01:29.562Z,3.28
2022-09-10T16:03:58.573Z,2.97
2022-09-10T16:06:27.789Z,2.40
2022-09-10T16:09:00.856Z,3.65
2022-09-10T16:11:36.056Z,3.10
2022-09-10T16:14:04.925Z,4.13
2022-09-10T16:16:32.726Z,4.30
2022-09-10T16:19:00.343Z,4.50
2022-09-10T16:21:32.772Z,4.70
2022-09-10T16:24:00.931Z,5.22
2022-09-10T16:26:31.100Z,5.75
2022-09-10T16:28:59.930Z,5.80
2022-09-10T16:31:33.361Z,5.25
2022-09-10T16:34:05.247Z,5.65
2022-09-10T16:36:34.558Z,5.80
2022-09-10T16:39:02.029Z,6.18
2022-09-10T16:41:29.274Z,5.22
2022-09-10T16:44:01.182Z,5.32
2022-09-10T16:46:28.329Z,5.07
2022-09-10T16:48:56.353Z,4.82
2022-09-10T16:51:24.870Z,6.55
2022-09-10T16:53:57.059Z,5.80
2022-09-10T16:56:25.395Z,5.25
2022-09-10T16:58:52.560Z,4.57
2022-09-10T17:01:20.768Z,5.22
2022-09-10T17:03:54.683Z,4.65
2022-09-10T17:06:24.615Z,4.15
2022-09-10T17:08:53.295Z,3.67
2022-09-10T17:11:26.140Z,4.25
2022-09-10T17:13:54.141Z,3.95
2022-09-10T17:16:41.273Z,2.78
2022-09-10T17:19:17.579Z,3.75
2022-09-10T17:21:50.804Z,3.42
2022-09-10T17:24:19.487Z,3.15
2022-09-10T17:26:46.153Z,4.03
2022-09-10T17:29:15.627Z,4.07
2022-09-10T17:31:43.772Z,4.53
2022-09-10T17:34:14.017Z,3.78
2022-09-10T17:36:46.173Z,4.40
2022-09-10T17:39:13.606Z,5.68
2022-09-10T17:41:41.407Z,5.50
2022-09-10T17:44:09.235Z,5.90
2022-09-10T17:46:36.184Z,5.57
2022-09-10T17:49:04.206Z,3.80
2022-09-10T17:51:35.038Z,4.20
2022-09-10T17:54:04.245Z,5.78
2022-09-10T17:56:31.201Z,5.85
2022-09-10T17:59:01.299Z,5.25
2022-09-10T18:01:34.272Z,5.18
2022-09-10T18:04:02.925Z,5.25
2022-09-10T18:06:30.093Z,5.05
2022-09-10T18:09:04.252Z,4.25
2022-09-10T18:11:36.500Z,5.15
2022-09-10T18:14:03.276Z,5.38
2022-09-10T18:16:32.124Z,4.00
2022-09-10T18:19:03.363Z,4.22
2022-09-10T18:21:32.658Z,6.45
2022-09-10T18:24:03.296Z,6.85
2022-09-10T18:26:32.915Z,4.38
2022-09-10T18:29:26.758Z,5.75
2022-09-10T18:31:55.999Z,7.80
2022-09-10T18:34:27.511Z,4.78
2022-09-10T18:36:57.492Z,5.22
2022-09-10T18:39:26.051Z,5.50
2022-09-10T18:41:53.988Z,5.97
2022-09-10T18:44:29.077Z,5.55
2022-09-10T18:47:02.100Z,4.80
2022-09-10T18:49:29.135Z,4.18
2022-09-10T18:51:57.301Z,4.72
2022-09-10T18:54:25.031Z,9.05
2022-09-10T18:56:54.566Z,6.88
2022-09-10T18:59:23.141Z,8.85
2022-09-10T19:01:51.804Z,7.93
2022-09-10T19:04:29.813Z,8.65
2022-09-10T19:06:59.582Z,8.43
2022-09-10T19:09:28.634Z,10.30
2022-09-10T19:11:57.004Z,7.13
2022-09-10T19:14:26.564Z,7.63
2022-09-10T19:16:54.843Z,7.80
2022-09-10T19:19:24.007Z,7.32
2022-09-10T19:21:59.912Z,6.38
2022-09-10T19:24:44.088Z,6.28
2022-09-10T19:27:13.597Z,7.63
2022-09-10T19:29:42.157Z,8.57
2022-09-10T19:32:10.018Z,5.07
2022-09-10T19:34:37.074Z,7.93
2022-09-10T19:37:03.649Z,9.18
2022-09-10T19:39:30.179Z,10.95
2022-09-10T19:41:56.775Z,7.45
2022-09-10T19:44:23.459Z,8.88
2022-09-10T19:46:50.317Z,6.65
2022-09-10T19:49:17.094Z,6.18
2022-09-10T19:51:43.979Z,7.15
2022-09-10T19:54:11.951Z,5.60
2022-09-10T19:56:41.236Z,9.48
2022-09-10T19:59:08.758Z,9.02
2022-09-10T20:01:38.611Z,9.30
2022-09-10T20:04:08.538Z,8.35
2022-09-10T20:06:36.287Z,7.70
2022-09-10T20:09:05.348Z,7.20
2022-09-10T20:11:35.010Z,9.07
2022-09-10T20:14:07.917Z,7.15
2022-09-10T20:16:39.255Z,10.25
2022-09-10T20:19:06.658Z,7.30
2022-09-10T20:21:34.637Z,9.18
2022-09-10T20:24:01.407Z,9.45
2022-09-10T20:26:30.473Z,6.07
2022-09-10T20:29:03.706Z,6.75
2022-09-10T20:31:31.801Z,5.50
2022-09-10T20:34:05.744Z,3.67
2022-09-10T20:36:34.842Z,5.00
2022-09-10T20:39:02.823Z,7.72
2022-09-10T20:41:30.177Z,7.03
2022-09-10T20:43:59.184Z,7.28
2022-09-10T20:46:27.582Z,7.50
2022-09-10T20:48:55.338Z,7.70
2022-09-10T20:51:22.570Z,8.65
2022-09-10T20:53:49.195Z,7.38
2022-09-10T20:56:19.628Z,6.78
2022-09-10T20:58:47.223Z,5.85
2022-09-10T21:01:18.939Z,6.82
2022-09-10T21:03:46.953Z,8.32
2022-09-10T21:06:15.658Z,9.07
2022-09-10T21:08:42.938Z,6.97
2022-09-10T21:11:15.127Z,5.57
2022-09-10T21:13:50.371Z,6.15
2022-09-10T21:16:25.643Z,5.47
2022-09-10T21:18:57.979Z,3.72
2022-09-10T21:21:27.821Z,3.70
2022-09-10T21:23:56.952Z,3.53
2022-09-10T21:26:32.924Z,4.72
2022-09-10T21:29:02.870Z,4.70
2022-09-10T21:31:30.460Z,7.20
2022-09-10T21:34:02.751Z,7.57
2022-09-10T21:36:30.646Z,9.15
2022-09-10T21:38:59.784Z,10.13
2022-09-10T21:41:35.454Z,6.28
2022-09-10T21:44:04.382Z,5.28
2022-09-10T21:46:32.319Z,4.55
2022-09-10T21:48:59.518Z,5.03
2022-09-10T21:51:26.829Z,4.60
2022-09-10T21:53:55.414Z,5.78
2022-09-10T21:56:23.918Z,4.30
2022-09-10T21:58:50.869Z,6.55
2022-09-10T22:01:20.816Z,5.32
2022-09-10T22:03:48.960Z,8.73
2022-09-10T22:06:18.558Z,5.70
2022-09-10T22:08:47.655Z,6.55
2022-09-10T22:11:17.114Z,4.80
2022-09-10T22:13:44.977Z,8.30
2022-09-10T22:16:12.613Z,4.75
2022-09-10T22:18:39.992Z,7.38
2022-09-10T22:21:07.298Z,7.60
2022-09-10T22:23:38.850Z,7.47
2022-09-10T22:26:14.752Z,7.07
2022-09-10T22:28:42.154Z,6.65
2022-09-10T22:31:18.967Z,6.75
2022-09-10T22:33:50.748Z,6.90
2022-09-10T22:36:23.569Z,6.32
2022-09-10T22:38:56.173Z,6.00
2022-09-10T22:41:23.277Z,6.28
2022-09-10T22:43:50.503Z,7.72
2022-09-10T22:46:18.040Z,7.30
2022-09-10T22:48:45.365Z,7.78
2022-09-10T22:51:14.371Z,8.52
2022-09-10T22:53:42.681Z,8.60
2022-09-10T22:56:10.615Z,8.10
2022-09-10T22:58:37.334Z,10.00
2022-09-10T23:01:06.445Z,8.68
2022-09-10T23:03:33.900Z,9.50
2022-09-10T23:06:18.746Z,8.15
2022-09-10T23:08:48.388Z,6.45
2022-09-10T23:11:21.024Z,7.63
2022-09-10T23:13:50.754Z,11.73
2022-09-10T23:16:23.647Z,9.25
2022-09-10T23:18:52.877Z,6.72
2022-09-10T23:21:20.745Z,10.85
2022-09-10T23:23:49.511Z,8.27
2022-09-10T23:26:17.261Z,5.82
2022-09-10T23:28:44.879Z,9.00
2022-09-10T23:31:17.475Z,5.20
2022-09-10T23:33:46.839Z,4.40
2022-09-10T23:36:14.574Z,8.07
2022-09-10T23:38:42.123Z,9.25
2022-09-10T23:41:09.699Z,4.32
2022-09-10T23:43:36.289Z,7.40
2022-09-10T23:46:02.908Z,9.32
2022-09-10T23:48:29.871Z,12.75
2022-09-10T23:50:57.221Z,11.77
2022-09-10T23:53:27.604Z,9.85
2022-09-10T23:55:54.324Z,11.63
2022-09-10T23:58:21.536Z,9.07
